Darstellungsparameter: Aktuell verwendete Einstellungen:
Skalierung der Graphiken ... ?
xyx+y,   Skalierungsfaktor:      Skalierung: Modus: x, Faktor: 1
Darstellungszeitraum ... ?
Vom - - bis: - -   Zeitraum: 26.05.2010 - 01.06.2010
Min/Max/Avg-Anzeige ... ?
Zeige MMA aktuell
Zeige MMA Monat
Zeige MMA alles
Zeige --A aktuell
Zeige --A Monat
Zeige --A alles
Keine MMA-Anzeige
MMA:
Average (ber die Originaldaten)
MMA-Basis: 26.05.2010 - 01.06.2010
Quicknavigation für Darstellung... ?
Tage:      1T, 2T, 3T, 5T -1T -2T -3T -5T +1T +2T +3T +5T
Wochen: 1W, 2W, 3W -1W -2W -3W +1W +2W +3W
Monate: 1M, 3M, 6M -1M -3M -6M +1M +3M +6M
Jahre:    1J, 3J, 5J, 10J -1J -3J -5J -10J +1J +3J +5J +10J
Nutze für die Darstellung ... ?
Originaldaten oder Mittelwerte auf ...
Stundenbasis Tagesbasis Wochenbasis
Monatsbasis Jahresbasis      Datenbasis: Original-Daten
Darstellen als:
Statistik (Auto) Statistik J:M      Darstellung:
Zur Graphik,    zurück zur Übersicht aller Sensoren.
 
Tabellarische Datenbersicht: ?
 
Sensor: Nr:Datum:Temp:Abs-Feuchte:Windchill:Wind:
Aussen-T/F 1 26-05-2010 00:05:48 18.9 C 6.8 g/m*3 18.9 C 0 km/h
2 26-05-2010 00:17:48 18.7 C 6.72 g/m*3 18.7 C 0 km/h
3 26-05-2010 00:29:48 18.5 C 6.8 g/m*3 18.5 C 0 km/h
4 26-05-2010 00:41:48 18.3 C 6.25 g/m*3 18.3 C 0 km/h
5 26-05-2010 00:53:48 18.2 C 6.22 g/m*3 18.2 C 0 km/h
6 26-05-2010 01:05:48 18.1 C 6.03 g/m*3 18.1 C 0 km/h
7 26-05-2010 01:17:49 18.1 C 6.03 g/m*3 18.1 C 0 km/h
8 26-05-2010 01:29:49 17.9 C 6.41 g/m*3 17.9 C 0 km/h
9 26-05-2010 01:41:49 15.8 C 7.81 g/m*3 15.8 C 0 km/h
10 26-05-2010 01:53:49 14.4 C 7.91 g/m*3 14.4 C 0 km/h
11 26-05-2010 02:05:49 14.2 C 8.3 g/m*3 14.2 C 0 km/h
12 26-05-2010 02:17:49 14.6 C 8.38 g/m*3 14.6 C 0 km/h
13 26-05-2010 02:29:49 14.6 C 8.38 g/m*3 14.6 C 0 km/h
14 26-05-2010 02:41:49 14.3 C 8.72 g/m*3 14.3 C 0 km/h
15 26-05-2010 02:53:49 14.4 C 9.02 g/m*3 14.4 C 0 km/h
16 26-05-2010 03:05:49 14.4 C 8.9 g/m*3 14.4 C 0 km/h
17 26-05-2010 03:17:50 14.5 C 8.58 g/m*3 14.5 C 0 km/h
18 26-05-2010 03:29:50 14.8 C 8.49 g/m*3 14.8 C 0 km/h
19 26-05-2010 03:41:50 14.7 C 8.18 g/m*3 14.7 C 0 km/h
20 26-05-2010 03:53:50 14.6 C 8.01 g/m*3 14.6 C 0 km/h
21 26-05-2010 04:05:50 14.8 C 7.85 g/m*3 14.8 C 0 km/h
22 26-05-2010 04:17:50 14.7 C 7.81 g/m*3 14.7 C 0 km/h
23 26-05-2010 04:29:50 14.7 C 7.68 g/m*3 14.7 C 0 km/h
24 26-05-2010 04:41:50 14.7 C 7.55 g/m*3 14.7 C 0 km/h
25 26-05-2010 04:53:50 14.7 C 7.55 g/m*3 14.7 C 0 km/h
Sensor: Nr:Datum:Temp:Abs-Feuchte:Windchill:Wind:
Aussen-T/F 26 26-05-2010 05:05:50 14.7 C 7.3 g/m*3 14.7 C 0 km/h
27 26-05-2010 05:17:50 14.7 C 7.43 g/m*3 14.7 C 0 km/h
28 26-05-2010 05:29:50 14.7 C 7.3 g/m*3 14.7 C 0 km/h
29 26-05-2010 05:41:50 14.7 C 7.43 g/m*3 14.7 C 0 km/h
30 26-05-2010 05:53:50 14.5 C 7.34 g/m*3 14.5 C 0 km/h
31 26-05-2010 06:05:50 14.7 C 7.55 g/m*3 14.7 C 0 km/h
32 26-05-2010 06:17:51 14.7 C 7.68 g/m*3 14.7 C 0 km/h
33 26-05-2010 06:29:51 14.5 C 7.84 g/m*3 14.5 C 0 km/h
34 26-05-2010 06:41:51 14.7 C 8.06 g/m*3 14.7 C 0 km/h
35 26-05-2010 06:53:51 14.8 C 7.85 g/m*3 14.8 C 0 km/h
36 26-05-2010 07:05:03 15 C 7.18 g/m*3 15 C 0 km/h
37 26-05-2010 07:17:02 15.4 C 6.83 g/m*3 15.4 C 0 km/h
38 26-05-2010 07:29:02 15.8 C 6.46 g/m*3 15.8 C 0 km/h
39 26-05-2010 07:41:03 16 C 6.27 g/m*3 16 C 0 km/h
40 26-05-2010 07:53:02 16.2 C 6.48 g/m*3 16.2 C 0 km/h
41 26-05-2010 08:05:02 16 C 6.4 g/m*3 16 C 0 km/h
42 26-05-2010 08:17:02 15.9 C 6.37 g/m*3 15.9 C 0 km/h
43 26-05-2010 08:29:02 15.8 C 6.33 g/m*3 15.8 C 0 km/h
44 26-05-2010 08:41:02 15.9 C 6.64 g/m*3 15.9 C 0 km/h
45 26-05-2010 08:53:02 16.2 C 6.48 g/m*3 16.2 C 0 km/h
46 26-05-2010 09:05:02 16.9 C 6.47 g/m*3 16.9 C 0 km/h
47 26-05-2010 09:17:02 17.1 C 6.11 g/m*3 17.1 C 0 km/h
48 26-05-2010 09:29:02 17 C 6.22 g/m*3 17 C 0 km/h
49 26-05-2010 09:41:01 16.4 C 6.7 g/m*3 16.4 C 0 km/h
50 26-05-2010 09:53:02 16 C 6.81 g/m*3 16 C 0 km/h
Sensor: Nr:Datum:Temp:Abs-Feuchte:Windchill:Wind:
Aussen-T/F 51 26-05-2010 10:05:01 16.4 C 6.56 g/m*3 16.4 C 0 km/h
52 26-05-2010 10:17:02 15.8 C 7.4 g/m*3 15.8 C 0 km/h
53 26-05-2010 10:29:02 15.1 C 8 g/m*3 15.1 C 0 km/h
54 26-05-2010 10:41:02 14.1 C 8.86 g/m*3 14.1 C 0 km/h
55 26-05-2010 10:53:02 14.2 C 9.4 g/m*3 14.2 C 0 km/h
56 26-05-2010 11:05:02 13.4 C 9.18 g/m*3 13.4 C 0 km/h
57 26-05-2010 11:17:02 12.9 C 9.35 g/m*3 12.9 C 0 km/h
58 26-05-2010 11:29:02 13.2 C 9.64 g/m*3 13.2 C 0 km/h
59 26-05-2010 11:41:02 13.3 C 9.82 g/m*3 13.3 C 0 km/h
60 26-05-2010 11:53:01 13.4 C 10 g/m*3 13.4 C 0 km/h
61 26-05-2010 12:05:02 13.2 C 9.87 g/m*3 13.2 C 0 km/h
62 26-05-2010 12:17:01 13.3 C 9.94 g/m*3 13.3 C 0 km/h
63 26-05-2010 12:29:01 13.2 C 9.87 g/m*3 13.2 C 0 km/h
64 26-05-2010 12:41:01 12.8 C 9.74 g/m*3 12.8 C 0 km/h
65 26-05-2010 12:53:01 13 C 9.87 g/m*3 13 C 0 km/h
66 26-05-2010 13:05:02 12.8 C 9.74 g/m*3 12.8 C 0 km/h
67 26-05-2010 13:17:02 13.2 C 10.1 g/m*3 13.2 C 0 km/h
68 26-05-2010 13:29:02 12.8 C 9.74 g/m*3 12.8 C 0 km/h
69 26-05-2010 13:41:01 12.6 C 9.51 g/m*3 12.6 C 0 km/h
70 26-05-2010 13:53:01 13 C 9.75 g/m*3 13 C 0 km/h
71 26-05-2010 14:05:01 13.9 C 9.83 g/m*3 13.9 C 0 km/h
72 26-05-2010 14:17:02 15.2 C 10.12 g/m*3 15.2 C 0 km/h
73 26-05-2010 14:29:02 15.8 C 9.83 g/m*3 15.8 C 0 km/h
74 26-05-2010 14:41:01 15.6 C 9.44 g/m*3 15.6 C 0 km/h
75 26-05-2010 14:53:03 15.5 C 9.39 g/m*3 15.5 C 0 km/h
Sensor: Nr:Datum:Temp:Abs-Feuchte:Windchill:Wind:
Aussen-T/F 76 26-05-2010 15:05:02 15.4 C 9.33 g/m*3 15.4 C 0 km/h
77 26-05-2010 15:17:02 14.5 C 9.45 g/m*3 14.5 C 0 km/h
78 26-05-2010 15:29:02 14.1 C 9.59 g/m*3 14.1 C 0 km/h
79 26-05-2010 15:41:02 14.4 C 10.01 g/m*3 14.4 C 0 km/h
80 26-05-2010 15:53:02 15.4 C 10.77 g/m*3 15.4 C 0 km/h
81 26-05-2010 16:05:01 17.8 C 11.23 g/m*3 17.8 C 0 km/h
82 26-05-2010 16:17:02 19.4 C 11.18 g/m*3 19.4 C 0 km/h
83 26-05-2010 16:29:02 20.3 C 10.73 g/m*3 20.3 C 0 km/h
84 26-05-2010 16:41:02 18.8 C 9.99 g/m*3 18.8 C 0 km/h
85 26-05-2010 16:53:02 18.5 C 9.97 g/m*3 18.5 C 0 km/h
86 26-05-2010 17:05:03 16.8 C 10.58 g/m*3 16.8 C 0 km/h
87 26-05-2010 17:17:02 16.2 C 10.76 g/m*3 16.2 C 0 km/h
88 26-05-2010 17:29:02 15.6 C 11.17 g/m*3 15.6 C 0 km/h
89 26-05-2010 17:41:02 16.2 C 11.86 g/m*3 16.2 C 0 km/h
90 26-05-2010 17:53:02 17.1 C 12.52 g/m*3 17.1 C 0 km/h
91 26-05-2010 18:05:02 16.1 C 11.51 g/m*3 16.1 C 0 km/h
92 26-05-2010 18:17:02 15.5 C 11.5 g/m*3 15.5 C 0 km/h
93 26-05-2010 18:29:02 17 C 12.73 g/m*3 17 C 0 km/h
94 26-05-2010 18:41:01 18.7 C 13.93 g/m*3 18.7 C 0 km/h
95 26-05-2010 18:53:02 18.8 C 13.69 g/m*3 18.8 C 0 km/h
96 26-05-2010 19:05:01 19.1 C 13.28 g/m*3 19.1 C 0 km/h
97 26-05-2010 19:17:01 19.2 C 13.19 g/m*3 19.2 C 0 km/h
98 26-05-2010 19:29:01 19.2 C 13.03 g/m*3 19.2 C 0 km/h
99 26-05-2010 19:41:02 19.3 C 12.77 g/m*3 19.3 C 0 km/h
100 26-05-2010 19:53:02 18.1 C 11.9 g/m*3 18.1 C 0 km/h
Sensor: Nr:Datum:Temp:Abs-Feuchte:Windchill:Wind:
Aussen-T/F 101 26-05-2010 20:05:02 17.2 C 11.72 g/m*3 17.2 C 0 km/h
102 26-05-2010 20:17:02 17.2 C 11.86 g/m*3 17.2 C 0 km/h
103 26-05-2010 20:29:02 17 C 11.87 g/m*3 17 C 0 km/h
104 26-05-2010 20:41:02 16.7 C 11.8 g/m*3 16.7 C 0 km/h
105 26-05-2010 20:53:02 16.2 C 11.58 g/m*3 16.2 C 0 km/h
106 26-05-2010 21:05:03 16.1 C 11.65 g/m*3 16.1 C 0 km/h
107 26-05-2010 21:17:02 16 C 11.72 g/m*3 16 C 0 km/h
108 26-05-2010 21:29:02 15.7 C 10.97 g/m*3 15.7 C 0 km/h
109 26-05-2010 21:41:03 14.6 C 9.89 g/m*3 14.6 C 0 km/h
110 26-05-2010 21:53:02 13.6 C 9.18 g/m*3 13.6 C 0 km/h
111 26-05-2010 22:05:02 13.1 C 8.9 g/m*3 13.1 C 0 km/h
112 26-05-2010 22:18:04 13.1 C 9.01 g/m*3 13.1 C 0 km/h
113 26-05-2010 22:30:04 12.9 C 9.02 g/m*3 12.9 C 0 km/h
114 26-05-2010 22:42:04 12.6 C 8.63 g/m*3 12.6 C 0 km/h
115 26-05-2010 22:54:04 12.6 C 8.63 g/m*3 12.6 C 0 km/h
116 26-05-2010 23:06:04 12.7 C 8.91 g/m*3 12.7 C 0 km/h
117 26-05-2010 23:18:04 12.5 C 8.47 g/m*3 12.5 C 0 km/h
118 26-05-2010 23:30:04 12.4 C 8.3 g/m*3 12.4 C 0 km/h
119 26-05-2010 23:42:05 12.5 C 8.47 g/m*3 12.5 C 0 km/h
120 26-05-2010 23:54:05 12.5 C 8.36 g/m*3 12.5 C 0 km/h
121 27-05-2010 00:06:05 12.5 C 8.47 g/m*3 12.5 C 0 km/h
122 27-05-2010 00:18:05 12.4 C 8.41 g/m*3 12.4 C 0 km/h
123 27-05-2010 00:30:05 12.4 C 8.41 g/m*3 12.4 C 0 km/h
124 27-05-2010 00:42:05 12.3 C 8.36 g/m*3 12.3 C 0 km/h
125 27-05-2010 00:54:05 12.2 C 8.31 g/m*3 12.2 C 0 km/h
Sensor: Nr:Datum:Temp:Abs-Feuchte:Windchill:Wind:
Aussen-T/F 126 27-05-2010 01:06:05 12.3 C 8.25 g/m*3 12.3 C 0 km/h
127 27-05-2010 01:18:05 12.2 C 8.2 g/m*3 12.2 C 0 km/h
128 27-05-2010 01:30:05 11.7 C 7.95 g/m*3 11.7 C 0 km/h
129 27-05-2010 01:42:05 11.8 C 8.21 g/m*3 11.8 C 0 km/h
130 27-05-2010 01:54:05 11.5 C 8.16 g/m*3 11.5 C 0 km/h
131 27-05-2010 02:06:05 11.4 C 8.21 g/m*3 11.4 C 0 km/h
132 27-05-2010 02:18:05 11.3 C 8.16 g/m*3 11.3 C 0 km/h
133 27-05-2010 02:30:05 11.2 C 8.01 g/m*3 11.2 C 0 km/h
134 27-05-2010 02:42:05 11.2 C 8.11 g/m*3 11.2 C 0 km/h
135 27-05-2010 02:54:05 11.1 C 8.06 g/m*3 11.1 C 0 km/h
136 27-05-2010 03:06:05 11.1 C 8.06 g/m*3 11.1 C 0 km/h
137 27-05-2010 03:18:05 11.3 C 8.06 g/m*3 11.3 C 0 km/h
138 27-05-2010 03:30:05 11.2 C 8.01 g/m*3 11.2 C 0 km/h
139 27-05-2010 03:42:05 11.2 C 7.91 g/m*3 11.2 C 0 km/h
140 27-05-2010 03:54:05 11 C 7.81 g/m*3 11 C 0 km/h
141 27-05-2010 04:06:06 11 C 7.91 g/m*3 11 C 0 km/h
142 27-05-2010 04:18:06 11 C 7.91 g/m*3 11 C 0 km/h
143 27-05-2010 04:30:06 10.9 C 7.86 g/m*3 10.9 C 0 km/h
144 27-05-2010 04:42:06 10.8 C 7.81 g/m*3 10.8 C 0 km/h
145 27-05-2010 04:54:06 10.7 C 7.76 g/m*3 10.7 C 0 km/h
146 27-05-2010 05:06:06 10.7 C 7.76 g/m*3 10.7 C 0 km/h
147 27-05-2010 05:18:06 10.7 C 7.76 g/m*3 10.7 C 0 km/h
148 27-05-2010 05:30:06 10.7 C 7.76 g/m*3 10.7 C 0 km/h
149 27-05-2010 05:42:06 10.8 C 7.81 g/m*3 10.8 C 0 km/h
150 27-05-2010 05:54:06 10.8 C 7.81 g/m*3 10.8 C 0 km/h
Sensor: Nr:Datum:Temp:Abs-Feuchte:Windchill:Wind:
Aussen-T/F 151 27-05-2010 06:06:06 10.8 C 7.81 g/m*3 10.8 C 0 km/h
152 27-05-2010 06:18:06 10.9 C 7.86 g/m*3 10.9 C 0 km/h
153 27-05-2010 06:30:06 11.1 C 7.86 g/m*3 11.1 C 0 km/h
154 27-05-2010 06:42:03 11.1 C 7.86 g/m*3 11.1 C 0 km/h
155 27-05-2010 06:54:02 11.1 C 7.86 g/m*3 11.1 C 0 km/h
156 27-05-2010 07:06:02 11.1 C 7.96 g/m*3 11.1 C 0 km/h
157 27-05-2010 07:18:03 11.2 C 7.91 g/m*3 11.2 C 0 km/h
158 27-05-2010 07:30:03 11.4 C 7.9 g/m*3 11.4 C 0 km/h
159 27-05-2010 07:42:02 11.5 C 8.06 g/m*3 11.5 C 0 km/h
160 27-05-2010 07:54:03 11.3 C 7.96 g/m*3 11.3 C 0 km/h
161 27-05-2010 08:06:02 11.4 C 8.11 g/m*3 11.4 C 0 km/h
162 27-05-2010 08:18:02 11.7 C 8.16 g/m*3 11.7 C 0 km/h
163 27-05-2010 08:30:03 11.7 C 8.16 g/m*3 11.7 C 0 km/h
164 27-05-2010 08:42:02 12 C 8.1 g/m*3 12 C 0 km/h
165 27-05-2010 08:54:02 11.8 C 7.79 g/m*3 11.8 C 0 km/h
166 27-05-2010 09:06:01 12 C 7.89 g/m*3 12 C 0 km/h
167 27-05-2010 09:18:02 11.9 C 7.73 g/m*3 11.9 C 0 km/h
168 27-05-2010 09:30:02 11.8 C 7.79 g/m*3 11.8 C 0 km/h
169 27-05-2010 09:42:01 12.2 C 7.88 g/m*3 12.2 C 0 km/h
170 27-05-2010 09:54:02 12.2 C 7.66 g/m*3 12.2 C 0 km/h
171 27-05-2010 10:06:02 12.4 C 7.65 g/m*3 12.4 C 0 km/h
172 27-05-2010 10:18:02 13 C 7.71 g/m*3 13 C 0 km/h
173 27-05-2010 10:30:02 13.2 C 7.58 g/m*3 13.2 C 0 km/h
174 27-05-2010 10:42:03 13.4 C 7.56 g/m*3 13.4 C 0 km/h
175 27-05-2010 10:54:02 13.2 C 7.23 g/m*3 13.2 C 0 km/h
Sensor: Nr:Datum:Temp:Abs-Feuchte:Windchill:Wind:
Aussen-T/F 176 27-05-2010 11:06:02 14.1 C 7.16 g/m*3 14.1 C 0 km/h
177 27-05-2010 11:18:01 14.6 C 7.13 g/m*3 14.6 C 0 km/h
178 27-05-2010 11:30:01 14.4 C 7.17 g/m*3 14.4 C 0 km/h
179 27-05-2010 11:42:02 15 C 6.8 g/m*3 15 C 0 km/h
180 27-05-2010 11:54:02 15.9 C 7.31 g/m*3 15.9 C 0 km/h
181 27-05-2010 12:06:02 16.1 C 6.72 g/m*3 16.1 C 0 km/h
182 27-05-2010 12:18:01 16.4 C 6.7 g/m*3 16.4 C 0 km/h
183 27-05-2010 12:30:01 16.7 C 6.82 g/m*3 16.7 C 0 km/h
184 27-05-2010 12:42:02 16 C 6.68 g/m*3 16 C 0 km/h
185 27-05-2010 12:54:02 15.5 C 6.74 g/m*3 15.5 C 0 km/h
186 27-05-2010 13:06:02 16 C 6.68 g/m*3 16 C 0 km/h
187 27-05-2010 13:18:02 16.5 C 6.74 g/m*3 16.5 C 0 km/h
188 27-05-2010 13:30:02 17.6 C 6.45 g/m*3 17.6 C 0 km/h
189 27-05-2010 13:42:02 18 C 6.45 g/m*3 18 C 0 km/h
190 27-05-2010 13:54:02 19.1 C 6.39 g/m*3 19.1 C 0 km/h
191 27-05-2010 14:06:03 19.6 C 6.58 g/m*3 19.6 C 0 km/h
192 27-05-2010 14:18:02 18.7 C 6.08 g/m*3 18.7 C 0 km/h
193 27-05-2010 14:30:02 20.6 C 7.16 g/m*3 20.6 C 0 km/h
194 27-05-2010 14:42:02 21.7 C 6.68 g/m*3 21.7 C 0 km/h
195 27-05-2010 14:54:02 22.5 C 6.59 g/m*3 22.5 C 0 km/h
196 27-05-2010 15:06:01 22.5 C 6.79 g/m*3 22.5 C 0 km/h
197 27-05-2010 15:18:02 21.5 C 6.22 g/m*3 21.5 C 0 km/h
198 27-05-2010 15:30:02 21.9 C 6.18 g/m*3 21.9 C 0 km/h
199 27-05-2010 15:42:02 22.3 C 6.12 g/m*3 22.3 C 0 km/h
200 27-05-2010 15:54:03 23.3 C 6.69 g/m*3 23.3 C 0 km/h
Sensor: Nr:Datum:Temp:Abs-Feuchte:Windchill:Wind:
Aussen-T/F 201 27-05-2010 16:06:02 23.7 C 5.99 g/m*3 23.7 C 0 km/h
202 27-05-2010 16:18:02 23.5 C 6.34 g/m*3 23.5 C 0 km/h
203 27-05-2010 16:30:02 23.3 C 6.48 g/m*3 23.3 C 0 km/h
204 27-05-2010 16:42:02 22.9 C 6.74 g/m*3 22.9 C 0 km/h
205 27-05-2010 16:54:02 23.4 C 6.73 g/m*3 23.4 C 0 km/h
206 27-05-2010 17:06:02 23.6 C 6.59 g/m*3 23.6 C 0 km/h
207 27-05-2010 17:18:02 23.3 C 6.48 g/m*3 23.3 C 0 km/h
208 27-05-2010 17:30:02 23.5 C 6.56 g/m*3 23.5 C 0 km/h
209 27-05-2010 17:42:02 23.4 C 6.73 g/m*3 23.4 C 0 km/h
210 27-05-2010 17:54:01 23.4 C 6.94 g/m*3 23.4 C 0 km/h
211 27-05-2010 18:06:02 24.1 C 6.78 g/m*3 24.1 C 0 km/h
212 27-05-2010 18:18:02 23.3 C 6.69 g/m*3 23.3 C 0 km/h
213 27-05-2010 18:30:02 22.3 C 7.5 g/m*3 22.3 C 0 km/h
214 27-05-2010 18:42:02 22.4 C 7.35 g/m*3 22.4 C 0 km/h
215 27-05-2010 18:54:01 23.3 C 7.32 g/m*3 23.3 C 0 km/h
216 27-05-2010 19:06:02 22.7 C 7.88 g/m*3 22.7 C 0 km/h
217 27-05-2010 19:18:02 21.6 C 7.78 g/m*3 21.6 C 0 km/h
218 27-05-2010 19:30:02 20.6 C 8.59 g/m*3 20.6 C 0 km/h
219 27-05-2010 19:42:01 19.9 C 8.76 g/m*3 19.9 C 0 km/h
220 27-05-2010 19:54:02 19.4 C 8.51 g/m*3 19.4 C 0 km/h
221 27-05-2010 20:06:01 19.1 C 8.36 g/m*3 19.1 C 0 km/h
222 27-05-2010 20:18:02 18.7 C 8.49 g/m*3 18.7 C 0 km/h
223 27-05-2010 20:30:02 18.3 C 8.44 g/m*3 18.3 C 0 km/h
224 27-05-2010 20:42:01 17.5 C 9.39 g/m*3 17.5 C 0 km/h
225 27-05-2010 20:54:01 16.6 C 9.61 g/m*3 16.6 C 0 km/h
Sensor: Nr:Datum:Temp:Abs-Feuchte:Windchill:Wind:
Aussen-T/F 226 27-05-2010 21:06:02 15.8 C 9.56 g/m*3 15.8 C 0 km/h
227 27-05-2010 21:18:01 15.6 C 9.58 g/m*3 15.6 C 0 km/h
228 27-05-2010 21:30:01 15.8 C 9.69 g/m*3 15.8 C 0 km/h
229 27-05-2010 21:42:01 15.9 C 9.62 g/m*3 15.9 C 0 km/h
230 27-05-2010 21:54:01 15.8 C 9.29 g/m*3 15.8 C 0 km/h
231 27-05-2010 22:06:01 16 C 9.4 g/m*3 16 C 0 km/h
232 27-05-2010 22:18:01 16.1 C 9.18 g/m*3 16.1 C 0 km/h
233 27-05-2010 22:30:01 16.2 C 9.24 g/m*3 16.2 C 0 km/h
234 27-05-2010 22:42:02 16 C 9.13 g/m*3 16 C 0 km/h
235 27-05-2010 22:55:03 16 C 9.4 g/m*3 16 C 0 km/h
236 27-05-2010 23:07:03 15.6 C 9.71 g/m*3 15.6 C 0 km/h
237 27-05-2010 23:19:03 15.6 C 9.71 g/m*3 15.6 C 0 km/h
238 27-05-2010 23:31:03 15.7 C 9.77 g/m*3 15.7 C 0 km/h
239 27-05-2010 23:43:03 15.6 C 9.71 g/m*3 15.6 C 0 km/h
240 27-05-2010 23:55:03 15.3 C 9.66 g/m*3 15.3 C 0 km/h
241 28-05-2010 00:07:03 14.9 C 9.69 g/m*3 14.9 C 0 km/h
242 28-05-2010 00:19:03 14.9 C 9.81 g/m*3 14.9 C 0 km/h
243 28-05-2010 00:31:03 15 C 9.75 g/m*3 15 C 0 km/h
244 28-05-2010 00:43:03 15 C 9.49 g/m*3 15 C 0 km/h
245 28-05-2010 00:55:03 15.2 C 9.48 g/m*3 15.2 C 0 km/h
246 28-05-2010 01:07:03 15.2 C 9.35 g/m*3 15.2 C 0 km/h
247 28-05-2010 01:19:03 15.2 C 9.22 g/m*3 15.2 C 0 km/h
248 28-05-2010 01:31:03 15.2 C 9.09 g/m*3 15.2 C 0 km/h
249 28-05-2010 01:43:03 15.1 C 9.03 g/m*3 15.1 C 0 km/h
250 28-05-2010 01:55:03 15 C 9.1 g/m*3 15 C 0 km/h
Sensor: Nr:Datum:Temp:Abs-Feuchte:Windchill:Wind:
Aussen-T/F 251 28-05-2010 02:07:04 14.8 C 9.12 g/m*3 14.8 C 0 km/h
252 28-05-2010 02:19:04 14.9 C 9.3 g/m*3 14.9 C 0 km/h
253 28-05-2010 02:31:04 14.8 C 9.25 g/m*3 14.8 C 0 km/h
254 28-05-2010 02:43:04 14.9 C 9.3 g/m*3 14.9 C 0 km/h
255 28-05-2010 02:55:04 14.9 C 9.18 g/m*3 14.9 C 0 km/h
256 28-05-2010 03:07:04 14.9 C 9.18 g/m*3 14.9 C 0 km/h
257 28-05-2010 03:19:04 15 C 9.1 g/m*3 15 C 0 km/h
258 28-05-2010 03:31:04 14.7 C 9.19 g/m*3 14.7 C 0 km/h
259 28-05-2010 03:43:04 14.7 C 9.19 g/m*3 14.7 C 0 km/h
260 28-05-2010 03:55:04 14.6 C 9.13 g/m*3 14.6 C 0 km/h
261 28-05-2010 04:07:04 14.6 C 9.01 g/m*3 14.6 C 0 km/h
262 28-05-2010 04:19:04 14.6 C 9.01 g/m*3 14.6 C 0 km/h
263 28-05-2010 04:31:04 14.5 C 8.95 g/m*3 14.5 C 0 km/h
264 28-05-2010 04:43:04 14.1 C 9.34 g/m*3 14.1 C 0 km/h
265 28-05-2010 04:55:04 14 C 9.65 g/m*3 14 C 0 km/h
266 28-05-2010 05:07:04 13.8 C 9.77 g/m*3 13.8 C 0 km/h
267 28-05-2010 05:19:04 13.7 C 9.83 g/m*3 13.7 C 0 km/h
268 28-05-2010 05:31:04 13.7 C 9.83 g/m*3 13.7 C 0 km/h
269 28-05-2010 05:43:04 13.7 C 9.95 g/m*3 13.7 C 0 km/h
270 28-05-2010 05:55:04 13.6 C 10 g/m*3 13.6 C 0 km/h
271 28-05-2010 06:07:04 13.6 C 10 g/m*3 13.6 C 0 km/h
272 28-05-2010 06:19:04 13.5 C 9.94 g/m*3 13.5 C 0 km/h
273 28-05-2010 06:31:04 13.5 C 10.06 g/m*3 13.5 C 0 km/h
274 28-05-2010 06:43:05 13.7 C 10.18 g/m*3 13.7 C 0 km/h
275 28-05-2010 06:55:05 13.8 C 10.37 g/m*3 13.8 C 0 km/h
Sensor: Nr:Datum:Temp:Abs-Feuchte:Windchill:Wind:
Aussen-T/F 276 28-05-2010 07:07:03 13.8 C 10.37 g/m*3 13.8 C 0 km/h
277 28-05-2010 07:19:03 13.8 C 10.37 g/m*3 13.8 C 0 km/h
278 28-05-2010 07:31:02 14.1 C 10.56 g/m*3 14.1 C 0 km/h
279 28-05-2010 07:43:02 14.1 C 10.56 g/m*3 14.1 C 0 km/h
280 28-05-2010 07:55:01 14.1 C 10.56 g/m*3 14.1 C 0 km/h
281 28-05-2010 08:07:02 14.2 C 10.5 g/m*3 14.2 C 0 km/h
282 28-05-2010 08:19:02 14.1 C 10.44 g/m*3 14.1 C 0 km/h
283 28-05-2010 08:31:01 14.2 C 10.5 g/m*3 14.2 C 0 km/h
284 28-05-2010 08:43:01 14.5 C 10.7 g/m*3 14.5 C 0 km/h
285 28-05-2010 08:55:01 14.8 C 10.77 g/m*3 14.8 C 0 km/h
286 28-05-2010 09:07:01 15.2 C 10.64 g/m*3 15.2 C 0 km/h
287 28-05-2010 09:19:02 15.2 C 10.25 g/m*3 15.2 C 0 km/h
288 28-05-2010 09:31:01 15.2 C 9.48 g/m*3 15.2 C 0 km/h
289 28-05-2010 09:43:01 15.8 C 9.29 g/m*3 15.8 C 0 km/h
290 28-05-2010 09:55:03 14.2 C 8.91 g/m*3 14.2 C 0 km/h
291 28-05-2010 10:07:02 15.5 C 9.25 g/m*3 15.5 C 0 km/h
292 28-05-2010 10:19:02 15.5 C 8.59 g/m*3 15.5 C 0 km/h
293 28-05-2010 10:31:02 15.6 C 8.25 g/m*3 15.6 C 0 km/h
294 28-05-2010 10:43:02 15.6 C 8.51 g/m*3 15.6 C 0 km/h
295 28-05-2010 10:55:02 16 C 8.17 g/m*3 16 C 0 km/h
296 28-05-2010 11:07:02 16.3 C 7.63 g/m*3 16.3 C 0 km/h
297 28-05-2010 11:19:02 17.6 C 7.65 g/m*3 17.6 C 0 km/h
298 28-05-2010 11:31:02 16.9 C 7.05 g/m*3 16.9 C 0 km/h
299 28-05-2010 11:43:02 18 C 7.22 g/m*3 18 C 0 km/h
300 28-05-2010 11:55:02 17.2 C 6.74 g/m*3 17.2 C 0 km/h
Sensor: Nr:Datum:Temp:Abs-Feuchte:Windchill:Wind:
Aussen-T/F 301 28-05-2010 12:07:01 17.8 C 6.83 g/m*3 17.8 C 0 km/h
302 28-05-2010 12:19:01 16.9 C 7.34 g/m*3 16.9 C 0 km/h
303 28-05-2010 12:31:02 17.5 C 7.01 g/m*3 17.5 C 0 km/h
304 28-05-2010 12:43:02 19.3 C 7.13 g/m*3 19.3 C 0 km/h
305 28-05-2010 12:55:02 20.5 C 7.3 g/m*3 20.5 C 0 km/h
306 28-05-2010 13:07:02 20.4 C 6.72 g/m*3 20.4 C 0 km/h
307 28-05-2010 13:19:02 21.9 C 6.95 g/m*3 21.9 C 0 km/h
308 28-05-2010 13:31:02 21 C 6.41 g/m*3 21 C 0 km/h
309 28-05-2010 13:43:02 19.3 C 6.63 g/m*3 19.3 C 0 km/h
310 28-05-2010 13:55:02 18.6 C 6.37 g/m*3 18.6 C 0 km/h
311 28-05-2010 14:07:03 20 C 6.39 g/m*3 20 C 0 km/h
312 28-05-2010 14:19:02 21.2 C 6.49 g/m*3 21.2 C 0 km/h
313 28-05-2010 14:31:02 19.1 C 6.07 g/m*3 19.1 C 0 km/h
314 28-05-2010 14:43:02 18.2 C 6.22 g/m*3 18.2 C 0 km/h
315 28-05-2010 14:55:01 18.5 C 5.85 g/m*3 18.5 C 0 km/h
316 28-05-2010 15:07:02 19.1 C 5.9 g/m*3 19.1 C 0 km/h
317 28-05-2010 15:19:01 21.6 C 5.88 g/m*3 21.6 C 0 km/h
318 28-05-2010 15:31:01 22.6 C 5.42 g/m*3 22.6 C 0 km/h
319 28-05-2010 15:43:01 22.1 C 4.88 g/m*3 22.1 C 0 km/h
320 28-05-2010 15:55:01 23.2 C 4.99 g/m*3 23.2 C 0 km/h
321 28-05-2010 16:07:02 22.6 C 4.62 g/m*3 22.6 C 0 km/h
322 28-05-2010 16:19:02 23.4 C 4.63 g/m*3 23.4 C 0 km/h
323 28-05-2010 16:31:01 23.5 C 4.44 g/m*3 23.5 C 0 km/h
324 28-05-2010 16:43:01 22.6 C 4.02 g/m*3 22.6 C 0 km/h
325 28-05-2010 16:55:01 23.2 C 4.16 g/m*3 23.2 C 0 km/h
Sensor: Nr:Datum:Temp:Abs-Feuchte:Windchill:Wind:
Aussen-T/F 326 28-05-2010 17:07:01 22.2 C 3.93 g/m*3 22.2 C 0 km/h
327 28-05-2010 17:19:02 23 C 4.11 g/m*3 23 C 0 km/h
328 28-05-2010 17:31:01 24.2 C 4.4 g/m*3 24.2 C 0 km/h
329 28-05-2010 17:43:01 23.3 C 4.18 g/m*3 23.3 C 0 km/h
330 28-05-2010 17:55:03 23.3 C 4.18 g/m*3 23.3 C 0 km/h
331 28-05-2010 18:07:02 22.7 C 4.04 g/m*3 22.7 C 0 km/h
332 28-05-2010 18:19:02 22.8 C 4.06 g/m*3 22.8 C 0 km/h
333 28-05-2010 18:31:02 23.1 C 4.13 g/m*3 23.1 C 0 km/h
334 28-05-2010 18:43:02 22.5 C 3.99 g/m*3 22.5 C 0 km/h
335 28-05-2010 18:55:02 22 C 4.27 g/m*3 22 C 0 km/h
336 28-05-2010 19:07:01 21.7 C 4.77 g/m*3 21.7 C 0 km/h
337 28-05-2010 19:19:02 22 C 4.27 g/m*3 22 C 0 km/h
338 28-05-2010 19:31:02 22.5 C 4.79 g/m*3 22.5 C 0 km/h
339 28-05-2010 19:43:02 22.1 C 4.88 g/m*3 22.1 C 0 km/h
340 28-05-2010 19:55:01 22.4 C 4.57 g/m*3 22.4 C 0 km/h
341 28-05-2010 20:07:01 21.2 C 4.63 g/m*3 21.2 C 0 km/h
342 28-05-2010 20:19:01 19.7 C 4.92 g/m*3 19.7 C 0 km/h
343 28-05-2010 20:31:01 19.2 C 5.11 g/m*3 19.2 C 0 km/h
344 28-05-2010 20:43:01 19.3 C 5.14 g/m*3 19.3 C 0 km/h
345 28-05-2010 20:55:02 19 C 5.05 g/m*3 19 C 0 km/h
346 28-05-2010 21:07:02 18.6 C 5.09 g/m*3 18.6 C 0 km/h
347 28-05-2010 21:19:02 18.1 C 5.25 g/m*3 18.1 C 0 km/h
348 28-05-2010 21:31:02 17.4 C 5.34 g/m*3 17.4 C 0 km/h
349 28-05-2010 21:43:02 17 C 5.35 g/m*3 17 C 0 km/h
350 28-05-2010 21:55:02 16.6 C 5.65 g/m*3 16.6 C 0 km/h
Sensor: Nr:Datum:Temp:Abs-Feuchte:Windchill:Wind:
Aussen-T/F 351 28-05-2010 22:07:02 16.1 C 5.76 g/m*3 16.1 C 0 km/h
352 28-05-2010 22:19:01 15.7 C 6.02 g/m*3 15.7 C 0 km/h
353 28-05-2010 22:32:03 15.6 C 5.85 g/m*3 15.6 C 0 km/h
354 28-05-2010 22:44:03 15.4 C 6.04 g/m*3 15.4 C 0 km/h
355 28-05-2010 22:56:03 15 C 6.03 g/m*3 15 C 0 km/h
356 28-05-2010 23:08:03 14.7 C 6.04 g/m*3 14.7 C 0 km/h
357 28-05-2010 23:20:03 14.5 C 5.97 g/m*3 14.5 C 0 km/h
358 28-05-2010 23:32:03 14.2 C 6.11 g/m*3 14.2 C 0 km/h
359 28-05-2010 23:44:03 13.6 C 6.47 g/m*3 13.6 C 0 km/h
360 28-05-2010 23:56:03 13.3 C 6.47 g/m*3 13.3 C 0 km/h
361 29-05-2010 00:08:03 13.1 C 6.5 g/m*3 13.1 C 0 km/h
362 29-05-2010 00:20:03 13.1 C 6.62 g/m*3 13.1 C 0 km/h
363 29-05-2010 00:32:03 12.9 C 6.65 g/m*3 12.9 C 0 km/h
364 29-05-2010 00:44:03 12.7 C 6.68 g/m*3 12.7 C 0 km/h
365 29-05-2010 00:56:03 12.5 C 6.71 g/m*3 12.5 C 0 km/h
366 29-05-2010 01:08:03 12.3 C 6.62 g/m*3 12.3 C 0 km/h
367 29-05-2010 01:20:03 12.1 C 6.65 g/m*3 12.1 C 0 km/h
368 29-05-2010 01:32:04 11.9 C 6.78 g/m*3 11.9 C 0 km/h
369 29-05-2010 01:44:04 11.7 C 6.9 g/m*3 11.7 C 0 km/h
370 29-05-2010 01:56:04 11.6 C 6.86 g/m*3 11.6 C 0 km/h
371 29-05-2010 02:08:04 11.3 C 6.94 g/m*3 11.3 C 0 km/h
372 29-05-2010 02:20:04 11 C 6.91 g/m*3 11 C 0 km/h
373 29-05-2010 02:32:04 10.7 C 6.97 g/m*3 10.7 C 0 km/h
374 29-05-2010 02:44:04 10.6 C 6.93 g/m*3 10.6 C 0 km/h
375 29-05-2010 02:56:04 10.5 C 6.98 g/m*3 10.5 C 0 km/h
Sensor: Nr:Datum:Temp:Abs-Feuchte:Windchill:Wind:
Aussen-T/F 376 29-05-2010 03:08:04 10.2 C 6.95 g/m*3 10.2 C 0 km/h
377 29-05-2010 03:20:04 10.1 C 7 g/m*3 10.1 C 0 km/h
378 29-05-2010 03:32:04 9.9 C 7 g/m*3 9.9 C 0 km/h
379 29-05-2010 03:44:04 9.9 C 7.1 g/m*3 9.9 C 0 km/h
380 29-05-2010 03:56:04 9.8 C 7.05 g/m*3 9.8 C 0 km/h
381 29-05-2010 04:08:04 9.8 C 7.05 g/m*3 9.8 C 0 km/h
382 29-05-2010 04:20:04 9.7 C 7.1 g/m*3 9.7 C 0 km/h
383 29-05-2010 04:32:04 9.7 C 7.1 g/m*3 9.7 C 0 km/h
384 29-05-2010 04:44:04 9.6 C 7.05 g/m*3 9.6 C 0 km/h
385 29-05-2010 04:56:04 9.7 C 7.1 g/m*3 9.7 C 0 km/h
386 29-05-2010 05:08:04 9.6 C 6.96 g/m*3 9.6 C 0 km/h
387 29-05-2010 05:20:04 9.5 C 7.01 g/m*3 9.5 C 0 km/h
388 29-05-2010 05:32:05 9.5 C 7.01 g/m*3 9.5 C 0 km/h
389 29-05-2010 05:44:05 9.5 C 7.01 g/m*3 9.5 C 0 km/h
390 29-05-2010 05:56:05 9.3 C 7.01 g/m*3 9.3 C 0 km/h
391 29-05-2010 06:08:05 9.4 C 7.05 g/m*3 9.4 C 0 km/h
392 29-05-2010 06:20:05 9.6 C 7.15 g/m*3 9.6 C 0 km/h
393 29-05-2010 06:32:05 9.9 C 7.28 g/m*3 9.9 C 0 km/h
394 29-05-2010 06:44:05 10 C 7.14 g/m*3 10 C 0 km/h
395 29-05-2010 06:56:05 10 C 7.05 g/m*3 10 C 0 km/h
396 29-05-2010 07:08:05 9.9 C 7.1 g/m*3 9.9 C 0 km/h
397 29-05-2010 07:20:05 10.1 C 7.09 g/m*3 10.1 C 0 km/h
398 29-05-2010 07:32:05 10.2 C 7.14 g/m*3 10.2 C 0 km/h
399 29-05-2010 07:44:05 10.3 C 7.18 g/m*3 10.3 C 0 km/h
400 29-05-2010 07:56:05 10.4 C 7.23 g/m*3 10.4 C 0 km/h
Sensor: Nr:Datum:Temp:Abs-Feuchte:Windchill:Wind:
Aussen-T/F 401 29-05-2010 08:08:05 10.7 C 7.37 g/m*3 10.7 C 0 km/h
402 29-05-2010 08:20:05 11 C 7.31 g/m*3 11 C 0 km/h
403 29-05-2010 08:32:02 11.3 C 7.24 g/m*3 11.3 C 0 km/h
404 29-05-2010 08:44:02 11.7 C 7.11 g/m*3 11.7 C 0 km/h
405 29-05-2010 08:56:02 11.5 C 6.92 g/m*3 11.5 C 0 km/h
406 29-05-2010 09:08:02 11.8 C 7.16 g/m*3 11.8 C 0 km/h
407 29-05-2010 09:20:01 12.2 C 7.01 g/m*3 12.2 C 0 km/h
408 29-05-2010 09:32:02 12.7 C 7.01 g/m*3 12.7 C 0 km/h
409 29-05-2010 09:44:02 13.4 C 7.09 g/m*3 13.4 C 0 km/h
410 29-05-2010 09:56:02 14.2 C 6.96 g/m*3 14.2 C 0 km/h
411 29-05-2010 10:08:02 15 C 6.92 g/m*3 15 C 0 km/h
412 29-05-2010 10:20:02 16.1 C 7.26 g/m*3 16.1 C 0 km/h
413 29-05-2010 10:32:02 17.4 C 7.41 g/m*3 17.4 C 0 km/h
414 29-05-2010 10:44:02 17.9 C 7.02 g/m*3 17.9 C 0 km/h
415 29-05-2010 10:56:02 18.1 C 6.8 g/m*3 18.1 C 0 km/h
416 29-05-2010 11:08:02 18.4 C 6.92 g/m*3 18.4 C 0 km/h
417 29-05-2010 11:20:02 18.1 C 7.42 g/m*3 18.1 C 0 km/h
418 29-05-2010 11:32:02 18.4 C 7.55 g/m*3 18.4 C 0 km/h
419 29-05-2010 11:44:02 18.8 C 7.41 g/m*3 18.8 C 0 km/h
420 29-05-2010 11:56:01 19.6 C 7.26 g/m*3 19.6 C 0 km/h
421 29-05-2010 12:08:01 20.9 C 6.01 g/m*3 20.9 C 0 km/h
422 29-05-2010 12:20:01 21.8 C 5.76 g/m*3 21.8 C 0 km/h
423 29-05-2010 12:32:01 21.6 C 5.12 g/m*3 21.6 C 0 km/h
424 29-05-2010 12:44:01 21.2 C 5.19 g/m*3 21.2 C 0 km/h
425 29-05-2010 12:56:01 23.1 C 5.17 g/m*3 23.1 C 0 km/h
Sensor: Nr:Datum:Temp:Abs-Feuchte:Windchill:Wind:
Aussen-T/F 426 29-05-2010 13:08:01 24 C 4.79 g/m*3 24 C 0 km/h
427 29-05-2010 13:20:02 25.1 C 5.32 g/m*3 25.1 C 0 km/h
428 29-05-2010 13:32:01 25 C 4.6 g/m*3 25 C 0 km/h
429 29-05-2010 13:44:01 25.5 C 4.73 g/m*3 25.5 C 0 km/h
430 29-05-2010 13:56:02 24.6 C 4.73 g/m*3 24.6 C 0 km/h
431 29-05-2010 14:08:01 23.7 C 5.13 g/m*3 23.7 C 0 km/h
432 29-05-2010 14:20:02 23.8 C 5.38 g/m*3 23.8 C 0 km/h
433 29-05-2010 14:32:01 23.7 C 5.13 g/m*3 23.7 C 0 km/h
434 29-05-2010 14:44:01 23.3 C 5.23 g/m*3 23.3 C 0 km/h
435 29-05-2010 14:56:03 22.6 C 5.62 g/m*3 22.6 C 0 km/h
436 29-05-2010 15:08:02 23 C 5.55 g/m*3 23 C 0 km/h
437 29-05-2010 15:20:03 22.5 C 5.19 g/m*3 22.5 C 0 km/h
438 29-05-2010 15:32:02 22.7 C 6.06 g/m*3 22.7 C 0 km/h
439 29-05-2010 15:44:02 23.5 C 5.08 g/m*3 23.5 C 0 km/h
440 29-05-2010 15:56:02 23.4 C 4.84 g/m*3 23.4 C 0 km/h
441 29-05-2010 16:08:02 23.5 C 4.86 g/m*3 23.5 C 0 km/h
442 29-05-2010 16:20:02 24.5 C 5.15 g/m*3 24.5 C 0 km/h
443 29-05-2010 16:32:02 24.4 C 4.9 g/m*3 24.4 C 0 km/h
444 29-05-2010 16:44:02 24.5 C 5.15 g/m*3 24.5 C 0 km/h
445 29-05-2010 16:56:02 25.2 C 4.89 g/m*3 25.2 C 0 km/h
446 29-05-2010 17:08:02 25.1 C 5.79 g/m*3 25.1 C 0 km/h
447 29-05-2010 17:20:03 24.9 C 5.72 g/m*3 24.9 C 0 km/h
448 29-05-2010 17:32:02 23.5 C 5.92 g/m*3 23.5 C 0 km/h
449 29-05-2010 17:44:02 23.3 C 6.27 g/m*3 23.3 C 0 km/h
450 29-05-2010 17:56:02 23 C 5.96 g/m*3 23 C 0 km/h
Sensor: Nr:Datum:Temp:Abs-Feuchte:Windchill:Wind:
Aussen-T/F 451 29-05-2010 18:08:02 22.4 C 6.16 g/m*3 22.4 C 0 km/h
452 29-05-2010 18:20:02 22 C 6.21 g/m*3 22 C 0 km/h
453 29-05-2010 18:32:03 21.6 C 6.45 g/m*3 21.6 C 0 km/h
454 29-05-2010 18:44:03 21.3 C 5.78 g/m*3 21.3 C 0 km/h
455 29-05-2010 18:56:02 21.2 C 5.56 g/m*3 21.2 C 0 km/h
456 29-05-2010 19:08:01 21.2 C 5.56 g/m*3 21.2 C 0 km/h
457 29-05-2010 19:20:02 21 C 5.13 g/m*3 21 C 0 km/h
458 29-05-2010 19:32:02 20.4 C 5.31 g/m*3 20.4 C 0 km/h
459 29-05-2010 19:44:02 20.3 C 5.28 g/m*3 20.3 C 0 km/h
460 29-05-2010 19:56:02 20.4 C 5.48 g/m*3 20.4 C 0 km/h
461 29-05-2010 20:08:02 20 C 5.53 g/m*3 20 C 0 km/h
462 29-05-2010 20:20:02 19.6 C 5.74 g/m*3 19.6 C 0 km/h
463 29-05-2010 20:32:02 19.4 C 5.84 g/m*3 19.4 C 0 km/h
464 29-05-2010 20:44:02 18.9 C 6.32 g/m*3 18.9 C 0 km/h
465 29-05-2010 20:56:02 18.6 C 6.37 g/m*3 18.6 C 0 km/h
466 29-05-2010 21:08:02 18.4 C 5.98 g/m*3 18.4 C 0 km/h
467 29-05-2010 21:20:02 18.3 C 5.79 g/m*3 18.3 C 0 km/h
468 29-05-2010 21:32:02 17.6 C 6.9 g/m*3 17.6 C 0 km/h
469 29-05-2010 21:44:02 16.4 C 6.84 g/m*3 16.4 C 0 km/h
470 29-05-2010 21:56:02 14.6 C 8.13 g/m*3 14.6 C 0 km/h
471 29-05-2010 22:08:02 13.8 C 8.94 g/m*3 13.8 C 0 km/h
472 29-05-2010 22:20:01 13.3 C 9.01 g/m*3 13.3 C 0 km/h
473 29-05-2010 22:32:01 13.9 C 9.47 g/m*3 13.9 C 0 km/h
474 29-05-2010 22:44:01 14.3 C 8.97 g/m*3 14.3 C 0 km/h
475 29-05-2010 22:57:02 14.5 C 8.95 g/m*3 14.5 C 0 km/h
Sensor: Nr:Datum:Temp:Abs-Feuchte:Windchill:Wind:
Aussen-T/F 476 29-05-2010 23:09:02 14.5 C 8.71 g/m*3 14.5 C 0 km/h
477 29-05-2010 23:21:02 14.4 C 8.65 g/m*3 14.4 C 0 km/h
478 29-05-2010 23:33:02 13.7 C 8.76 g/m*3 13.7 C 0 km/h
479 29-05-2010 23:45:02 12.8 C 8.96 g/m*3 12.8 C 0 km/h
480 29-05-2010 23:57:02 13.2 C 9.42 g/m*3 13.2 C 0 km/h
481 30-05-2010 00:09:02 13.2 C 9.53 g/m*3 13.2 C 0 km/h
482 30-05-2010 00:21:02 13.2 C 9.53 g/m*3 13.2 C 0 km/h
483 30-05-2010 00:33:03 13.1 C 9.47 g/m*3 13.1 C 0 km/h
484 30-05-2010 00:45:03 13.3 C 9.47 g/m*3 13.3 C 0 km/h
485 30-05-2010 00:57:03 14.1 C 8.74 g/m*3 14.1 C 0 km/h
486 30-05-2010 01:09:03 13.7 C 9 g/m*3 13.7 C 0 km/h
487 30-05-2010 01:21:03 13.2 C 9.3 g/m*3 13.2 C 0 km/h
488 30-05-2010 01:33:03 13.1 C 9.59 g/m*3 13.1 C 0 km/h
489 30-05-2010 01:45:03 13 C 9.64 g/m*3 13 C 0 km/h
490 30-05-2010 01:57:03 13 C 9.87 g/m*3 13 C 0 km/h
491 30-05-2010 02:09:03 13 C 9.98 g/m*3 13 C 0 km/h
492 30-05-2010 02:21:03 12.8 C 9.97 g/m*3 12.8 C 0 km/h
493 30-05-2010 02:33:03 12.8 C 9.97 g/m*3 12.8 C 0 km/h
494 30-05-2010 02:45:03 12.9 C 10.14 g/m*3 12.9 C 0 km/h
495 30-05-2010 02:57:03 13 C 10.09 g/m*3 13 C 0 km/h
496 30-05-2010 03:09:03 12.9 C 10.26 g/m*3 12.9 C 0 km/h
497 30-05-2010 03:21:03 12.9 C 10.26 g/m*3 12.9 C 0 km/h
498 30-05-2010 03:33:03 12.9 C 10.26 g/m*3 12.9 C 0 km/h
499 30-05-2010 03:45:03 12.9 C 10.26 g/m*3 12.9 C 0 km/h
500 30-05-2010 03:57:03 12.9 C 10.37 g/m*3 12.9 C 0 km/h
Sensor: Nr:Datum:Temp:Abs-Feuchte:Windchill:Wind:
Aussen-T/F 501 30-05-2010 04:09:03 12.7 C 10.24 g/m*3 12.7 C 0 km/h
502 30-05-2010 04:21:03 12.7 C 10.24 g/m*3 12.7 C 0 km/h
503 30-05-2010 04:33:03 12.7 C 10.24 g/m*3 12.7 C 0 km/h
504 30-05-2010 04:45:04 12.9 C 10.37 g/m*3 12.9 C 0 km/h
505 30-05-2010 04:57:04 13 C 10.32 g/m*3 13 C 0 km/h
506 30-05-2010 05:09:04 12.9 C 10.26 g/m*3 12.9 C 0 km/h
507 30-05-2010 05:21:04 12.9 C 10.26 g/m*3 12.9 C 0 km/h
508 30-05-2010 05:33:04 12.8 C 10.19 g/m*3 12.8 C 0 km/h
509 30-05-2010 05:45:04 13.1 C 10.27 g/m*3 13.1 C 0 km/h
510 30-05-2010 05:57:04 13.1 C 10.27 g/m*3 13.1 C 0 km/h
511 30-05-2010 06:09:04 13.2 C 10.22 g/m*3 13.2 C 0 km/h
512 30-05-2010 06:21:04 13.3 C 10.28 g/m*3 13.3 C 0 km/h
513 30-05-2010 06:33:04 13.4 C 10.35 g/m*3 13.4 C 0 km/h
514 30-05-2010 06:45:04 13.5 C 10.29 g/m*3 13.5 C 0 km/h
515 30-05-2010 06:57:04 13.4 C 10.11 g/m*3 13.4 C 0 km/h
516 30-05-2010 07:09:04 13.4 C 10.23 g/m*3 13.4 C 0 km/h
517 30-05-2010 07:21:04 13.5 C 10.29 g/m*3 13.5 C 0 km/h
518 30-05-2010 07:33:04 13.7 C 10.42 g/m*3 13.7 C 0 km/h
519 30-05-2010 07:45:04 14.2 C 10.62 g/m*3 14.2 C 0 km/h
520 30-05-2010 07:57:04 14.2 C 10.62 g/m*3 14.2 C 0 km/h
521 30-05-2010 08:09:04 14.3 C 10.69 g/m*3 14.3 C 0 km/h
522 30-05-2010 08:21:04 14.1 C 9.95 g/m*3 14.1 C 0 km/h
523 30-05-2010 08:33:04 14.7 C 10.07 g/m*3 14.7 C 0 km/h
524 30-05-2010 08:45:05 15 C 9.75 g/m*3 15 C 0 km/h
525 30-05-2010 08:57:05 15.2 C 9.86 g/m*3 15.2 C 0 km/h
Sensor: Nr:Datum:Temp:Abs-Feuchte:Windchill:Wind:
Aussen-T/F 526 30-05-2010 09:09:02 15.6 C 9.84 g/m*3 15.6 C 0 km/h
527 30-05-2010 09:21:02 15.8 C 10.1 g/m*3 15.8 C 0 km/h
528 30-05-2010 09:33:02 15.8 C 9.96 g/m*3 15.8 C 0 km/h
529 30-05-2010 09:45:02 15.7 C 10.03 g/m*3 15.7 C 0 km/h
530 30-05-2010 09:57:02 15.2 C 10.12 g/m*3 15.2 C 0 km/h
531 30-05-2010 10:09:02 15 C 10.13 g/m*3 15 C 0 km/h
532 30-05-2010 10:21:02 14.5 C 9.95 g/m*3 14.5 C 0 km/h
533 30-05-2010 10:33:02 14.7 C 10.2 g/m*3 14.7 C 0 km/h
534 30-05-2010 10:45:02 15.3 C 10.45 g/m*3 15.3 C 0 km/h
535 30-05-2010 10:57:02 15.4 C 10.25 g/m*3 15.4 C 0 km/h
536 30-05-2010 11:09:02 17 C 9.84 g/m*3 17 C 0 km/h
537 30-05-2010 11:21:02 17.1 C 9.32 g/m*3 17.1 C 0 km/h
538 30-05-2010 11:33:02 18.6 C 9.71 g/m*3 18.6 C 0 km/h
539 30-05-2010 11:45:02 17.6 C 8.25 g/m*3 17.6 C 0 km/h
540 30-05-2010 11:57:02 16.9 C 8.63 g/m*3 16.9 C 0 km/h
541 30-05-2010 12:09:02 17 C 8.83 g/m*3 17 C 0 km/h
542 30-05-2010 12:21:02 17.5 C 7.9 g/m*3 17.5 C 0 km/h
543 30-05-2010 12:33:01 18.4 C 8.34 g/m*3 18.4 C 0 km/h
544 30-05-2010 12:45:02 18.4 C 7.86 g/m*3 18.4 C 0 km/h
545 30-05-2010 12:57:02 18.7 C 7.52 g/m*3 18.7 C 0 km/h
546 30-05-2010 13:09:01 18.7 C 7.2 g/m*3 18.7 C 0 km/h
547 30-05-2010 13:21:02 17.6 C 7.2 g/m*3 17.6 C 0 km/h
548 30-05-2010 13:33:01 18.3 C 7.51 g/m*3 18.3 C 0 km/h
549 30-05-2010 13:45:02 18.1 C 7.57 g/m*3 18.1 C 0 km/h
550 30-05-2010 13:57:02 17 C 8.25 g/m*3 17 C 0 km/h
Sensor: Nr:Datum:Temp:Abs-Feuchte:Windchill:Wind:
Aussen-T/F 551 30-05-2010 14:09:02 17.4 C 8.45 g/m*3 17.4 C 0 km/h
552 30-05-2010 14:21:02 17.4 C 8.15 g/m*3 17.4 C 0 km/h
553 30-05-2010 14:33:02 18.1 C 8.03 g/m*3 18.1 C 0 km/h
554 30-05-2010 14:45:02 18.6 C 8.28 g/m*3 18.6 C 0 km/h
555 30-05-2010 14:57:02 18.5 C 8.23 g/m*3 18.5 C 0 km/h
556 30-05-2010 15:09:01 19.2 C 8.08 g/m*3 19.2 C 0 km/h
557 30-05-2010 15:21:01 19.3 C 8.13 g/m*3 19.3 C 0 km/h
558 30-05-2010 15:33:02 19.5 C 7.89 g/m*3 19.5 C 0 km/h
559 30-05-2010 15:45:02 19.3 C 7.63 g/m*3 19.3 C 0 km/h
560 30-05-2010 15:57:02 18.6 C 6.84 g/m*3 18.6 C 0 km/h
561 30-05-2010 16:09:02 18.9 C 6.97 g/m*3 18.9 C 0 km/h
562 30-05-2010 16:21:02 19.8 C 7.17 g/m*3 19.8 C 0 km/h
563 30-05-2010 16:33:02 19.7 C 6.79 g/m*3 19.7 C 0 km/h
564 30-05-2010 16:45:02 19.3 C 6.97 g/m*3 19.3 C 0 km/h
565 30-05-2010 16:57:02 19.3 C 6.63 g/m*3 19.3 C 0 km/h
566 30-05-2010 17:09:02 18.9 C 6.64 g/m*3 18.9 C 0 km/h
567 30-05-2010 17:21:02 18.3 C 6.72 g/m*3 18.3 C 0 km/h
568 30-05-2010 17:33:02 15.6 C 8.51 g/m*3 15.6 C 0 km/h
569 30-05-2010 17:45:02 14.5 C 9.33 g/m*3 14.5 C 0 km/h
570 30-05-2010 17:57:02 14.2 C 9.52 g/m*3 14.2 C 0 km/h
571 30-05-2010 18:09:02 14.9 C 9.81 g/m*3 14.9 C 0 km/h
572 30-05-2010 18:21:02 15.1 C 9.42 g/m*3 15.1 C 0 km/h
573 30-05-2010 18:33:02 14.5 C 9.2 g/m*3 14.5 C 0 km/h
574 30-05-2010 18:45:02 13.9 C 9.71 g/m*3 13.9 C 0 km/h
575 30-05-2010 18:57:02 13.7 C 9.83 g/m*3 13.7 C 0 km/h
Sensor: Nr:Datum:Temp:Abs-Feuchte:Windchill:Wind:
Aussen-T/F 576 30-05-2010 19:09:02 13.5 C 9.47 g/m*3 13.5 C 0 km/h
577 30-05-2010 19:21:02 12.8 C 9.07 g/m*3 12.8 C 0 km/h
578 30-05-2010 19:33:02 12.7 C 9.35 g/m*3 12.7 C 0 km/h
579 30-05-2010 19:45:01 13.1 C 9.7 g/m*3 13.1 C 0 km/h
580 30-05-2010 19:57:01 13.7 C 9.95 g/m*3 13.7 C 0 km/h
581 30-05-2010 20:09:02 13.2 C 8.27 g/m*3 13.2 C 0 km/h
582 30-05-2010 20:21:02 12.7 C 7.24 g/m*3 12.7 C 0 km/h
583 30-05-2010 20:33:02 12.4 C 6.88 g/m*3 12.4 C 0 km/h
584 30-05-2010 20:45:02 12.1 C 6.97 g/m*3 12.1 C 0 km/h
585 30-05-2010 20:57:02 11.9 C 7.31 g/m*3 11.9 C 0 km/h
586 30-05-2010 21:09:02 11.8 C 6.84 g/m*3 11.8 C 0 km/h
587 30-05-2010 21:21:02 12 C 6.61 g/m*3 12 C 0 km/h
588 30-05-2010 21:33:01 11.8 C 6.84 g/m*3 11.8 C 0 km/h
589 30-05-2010 21:45:02 11.7 C 6.59 g/m*3 11.7 C 0 km/h
590 30-05-2010 21:57:02 11.4 C 6.26 g/m*3 11.4 C 0 km/h
591 30-05-2010 22:09:02 11.3 C 6.22 g/m*3 11.3 C 0 km/h
592 30-05-2010 22:22:03 11.2 C 6.28 g/m*3 11.2 C 0 km/h
593 30-05-2010 22:34:03 11.1 C 6.25 g/m*3 11.1 C 0 km/h
594 30-05-2010 22:46:03 11.1 C 6.04 g/m*3 11.1 C 0 km/h
595 30-05-2010 22:58:03 11 C 5.91 g/m*3 11 C 0 km/h
596 30-05-2010 23:10:03 11 C 5.81 g/m*3 11 C 0 km/h
597 30-05-2010 23:22:03 10.9 C 5.87 g/m*3 10.9 C 0 km/h
598 30-05-2010 23:34:03 10.7 C 5.7 g/m*3 10.7 C 0 km/h
599 30-05-2010 23:46:03 10.4 C 5.69 g/m*3 10.4 C 0 km/h
600 30-05-2010 23:58:03 10 C 5.73 g/m*3 10 C 0 km/h
Sensor: Nr:Datum:Temp:Abs-Feuchte:Windchill:Wind:
Aussen-T/F 601 31-05-2010 00:10:03 10.1 C 5.86 g/m*3 10.1 C 0 km/h
602 31-05-2010 00:22:03 9.8 C 5.85 g/m*3 9.8 C 0 km/h
603 31-05-2010 00:34:03 9.8 C 5.75 g/m*3 9.8 C 0 km/h
604 31-05-2010 00:46:04 9.8 C 5.85 g/m*3 9.8 C 0 km/h
605 31-05-2010 00:58:04 9.9 C 5.98 g/m*3 9.9 C 0 km/h
606 31-05-2010 01:10:04 10.1 C 5.77 g/m*3 10.1 C 0 km/h
607 31-05-2010 01:22:04 10 C 5.92 g/m*3 10 C 0 km/h
608 31-05-2010 01:34:04 9.8 C 6.22 g/m*3 9.8 C 0 km/h
609 31-05-2010 01:46:04 9.8 C 6.31 g/m*3 9.8 C 0 km/h
610 31-05-2010 01:58:04 9.5 C 6.64 g/m*3 9.5 C 0 km/h
611 31-05-2010 02:10:04 9.1 C 7.01 g/m*3 9.1 C 0 km/h
612 31-05-2010 02:22:04 8.9 C 7.36 g/m*3 8.9 C 0 km/h
613 31-05-2010 02:34:04 8.9 C 7.62 g/m*3 8.9 C 0 km/h
614 31-05-2010 02:46:04 8.9 C 7.71 g/m*3 8.9 C 0 km/h
615 31-05-2010 02:58:04 8.9 C 7.8 g/m*3 8.9 C 0 km/h
616 31-05-2010 03:10:04 8.7 C 7.7 g/m*3 8.7 C 0 km/h
617 31-05-2010 03:22:04 8.7 C 7.78 g/m*3 8.7 C 0 km/h
618 31-05-2010 03:34:04 8.6 C 7.73 g/m*3 8.6 C 0 km/h
619 31-05-2010 03:46:04 8.6 C 7.82 g/m*3 8.6 C 0 km/h
620 31-05-2010 03:58:04 8.5 C 7.68 g/m*3 8.5 C 0 km/h
621 31-05-2010 04:10:04 8.4 C 7.63 g/m*3 8.4 C 0 km/h
622 31-05-2010 04:22:04 8.5 C 7.77 g/m*3 8.5 C 0 km/h
623 31-05-2010 04:34:04 8.4 C 7.63 g/m*3 8.4 C 0 km/h
624 31-05-2010 04:46:05 8.6 C 7.73 g/m*3 8.6 C 0 km/h
625 31-05-2010 04:58:05 8.7 C 7.78 g/m*3 8.7 C 0 km/h
Sensor: Nr:Datum:Temp:Abs-Feuchte:Windchill:Wind:
Aussen-T/F 626 31-05-2010 05:10:05 8.6 C 7.73 g/m*3 8.6 C 0 km/h
627 31-05-2010 05:22:05 8.5 C 7.68 g/m*3 8.5 C 0 km/h
628 31-05-2010 05:34:05 8.5 C 7.68 g/m*3 8.5 C 0 km/h
629 31-05-2010 05:46:05 8.5 C 7.68 g/m*3 8.5 C 0 km/h
630 31-05-2010 05:58:05 8.6 C 7.73 g/m*3 8.6 C 0 km/h
631 31-05-2010 06:10:05 8.6 C 7.73 g/m*3 8.6 C 0 km/h
632 31-05-2010 06:22:05 8.7 C 7.87 g/m*3 8.7 C 0 km/h
633 31-05-2010 06:34:05 8.7 C 7.87 g/m*3 8.7 C 0 km/h
634 31-05-2010 06:46:02 8.7 C 7.96 g/m*3 8.7 C 0 km/h
635 31-05-2010 06:58:02 8.9 C 8.06 g/m*3 8.9 C 0 km/h
636 31-05-2010 07:10:02 8.9 C 8.06 g/m*3 8.9 C 0 km/h
637 31-05-2010 07:22:01 8.8 C 8.01 g/m*3 8.8 C 0 km/h
638 31-05-2010 07:34:02 8.9 C 8.15 g/m*3 8.9 C 0 km/h
639 31-05-2010 07:46:02 9 C 8.11 g/m*3 9 C 0 km/h
640 31-05-2010 07:58:02 9.1 C 8.16 g/m*3 9.1 C 0 km/h
641 31-05-2010 08:10:02 9.3 C 8.36 g/m*3 9.3 C 0 km/h
642 31-05-2010 08:22:02 9.7 C 8.57 g/m*3 9.7 C 0 km/h
643 31-05-2010 08:34:02 10 C 8.55 g/m*3 10 C 0 km/h
644 31-05-2010 08:46:02 10.1 C 8.51 g/m*3 10.1 C 0 km/h
645 31-05-2010 08:58:02 10.3 C 8.52 g/m*3 10.3 C 0 km/h
646 31-05-2010 09:10:02 10.7 C 8.55 g/m*3 10.7 C 0 km/h
647 31-05-2010 09:22:02 10.8 C 8.4 g/m*3 10.8 C 0 km/h
648 31-05-2010 09:34:02 10.8 C 8.3 g/m*3 10.8 C 0 km/h
649 31-05-2010 09:46:02 10.7 C 8.25 g/m*3 10.7 C 0 km/h
650 31-05-2010 09:58:02 11 C 8.41 g/m*3 11 C 0 km/h
Sensor: Nr:Datum:Temp:Abs-Feuchte:Windchill:Wind:
Aussen-T/F 651 31-05-2010 10:10:02 10.9 C 8.36 g/m*3 10.9 C 0 km/h
652 31-05-2010 10:22:02 10.9 C 8.26 g/m*3 10.9 C 0 km/h
653 31-05-2010 10:34:02 11 C 8.31 g/m*3 11 C 0 km/h
654 31-05-2010 10:46:02 11.3 C 8.47 g/m*3 11.3 C 0 km/h
655 31-05-2010 10:58:02 11.2 C 8.31 g/m*3 11.2 C 0 km/h
656 31-05-2010 11:10:02 11.5 C 8.47 g/m*3 11.5 C 0 km/h
657 31-05-2010 11:22:02 11.6 C 8.32 g/m*3 11.6 C 0 km/h
658 31-05-2010 11:34:02 11.8 C 8.42 g/m*3 11.8 C 0 km/h
659 31-05-2010 11:46:02 12.4 C 8.41 g/m*3 12.4 C 0 km/h
660 31-05-2010 11:58:02 12.5 C 8.14 g/m*3 12.5 C 0 km/h
661 31-05-2010 12:10:02 12.6 C 7.74 g/m*3 12.6 C 0 km/h
662 31-05-2010 12:22:02 14.2 C 8.06 g/m*3 14.2 C 0 km/h
663 31-05-2010 12:34:02 14.2 C 7.45 g/m*3 14.2 C 0 km/h
664 31-05-2010 12:46:02 14.2 C 7.57 g/m*3 14.2 C 0 km/h
665 31-05-2010 12:58:02 13.7 C 7.34 g/m*3 13.7 C 0 km/h
666 31-05-2010 13:10:02 14 C 7.24 g/m*3 14 C 0 km/h
667 31-05-2010 13:22:02 15.8 C 7.67 g/m*3 15.8 C 0 km/h
668 31-05-2010 13:34:01 14.7 C 7.3 g/m*3 14.7 C 0 km/h
669 31-05-2010 13:46:02 13.6 C 7.18 g/m*3 13.6 C 0 km/h
670 31-05-2010 13:58:02 13.5 C 7.25 g/m*3 13.5 C 0 km/h
671 31-05-2010 14:10:01 14 C 7.36 g/m*3 14 C 0 km/h
672 31-05-2010 14:22:02 14.7 C 7.43 g/m*3 14.7 C 0 km/h
673 31-05-2010 14:34:01 15.4 C 7.23 g/m*3 15.4 C 0 km/h
674 31-05-2010 14:46:01 15.7 C 7.36 g/m*3 15.7 C 0 km/h
675 31-05-2010 14:58:01 15 C 7.18 g/m*3 15 C 0 km/h
Sensor: Nr:Datum:Temp:Abs-Feuchte:Windchill:Wind:
Aussen-T/F 676 31-05-2010 15:10:01 15 C 7.31 g/m*3 15 C 0 km/h
677 31-05-2010 15:22:02 14.8 C 7.35 g/m*3 14.8 C 0 km/h
678 31-05-2010 15:34:01 14.9 C 7.52 g/m*3 14.9 C 0 km/h
679 31-05-2010 15:46:03 14.7 C 7.81 g/m*3 14.7 C 0 km/h
680 31-05-2010 15:58:03 14.4 C 7.79 g/m*3 14.4 C 0 km/h
681 31-05-2010 16:10:02 14.2 C 8.06 g/m*3 14.2 C 0 km/h
682 31-05-2010 16:22:02 13.8 C 7.98 g/m*3 13.8 C 0 km/h
683 31-05-2010 16:34:02 13.8 C 8.1 g/m*3 13.8 C 0 km/h
684 31-05-2010 16:46:02 13.9 C 8.27 g/m*3 13.9 C 0 km/h
685 31-05-2010 16:58:02 14.1 C 8.01 g/m*3 14.1 C 0 km/h
686 31-05-2010 17:10:02 14.3 C 7.86 g/m*3 14.3 C 0 km/h
687 31-05-2010 17:22:02 14.4 C 7.54 g/m*3 14.4 C 0 km/h
688 31-05-2010 17:34:01 14.4 C 7.79 g/m*3 14.4 C 0 km/h
689 31-05-2010 17:46:02 14.3 C 7.99 g/m*3 14.3 C 0 km/h
690 31-05-2010 17:58:02 13.5 C 8.42 g/m*3 13.5 C 0 km/h
691 31-05-2010 18:10:01 13.2 C 8.73 g/m*3 13.2 C 0 km/h
692 31-05-2010 18:22:02 12.7 C 8.79 g/m*3 12.7 C 0 km/h
693 31-05-2010 18:34:01 12.9 C 8.68 g/m*3 12.9 C 0 km/h
694 31-05-2010 18:46:02 13.4 C 8.6 g/m*3 13.4 C 0 km/h
695 31-05-2010 18:58:02 13.3 C 8.66 g/m*3 13.3 C 0 km/h
696 31-05-2010 19:10:02 13 C 8.96 g/m*3 13 C 0 km/h
697 31-05-2010 19:22:02 12.8 C 9.18 g/m*3 12.8 C 0 km/h
698 31-05-2010 19:34:02 12.7 C 9.35 g/m*3 12.7 C 0 km/h
699 31-05-2010 19:46:02 12.6 C 9.4 g/m*3 12.6 C 0 km/h
700 31-05-2010 19:58:02 12.4 C 9.29 g/m*3 12.4 C 0 km/h
Sensor: Nr:Datum:Temp:Abs-Feuchte:Windchill:Wind:
Aussen-T/F 701 31-05-2010 20:10:01 12.4 C 9.4 g/m*3 12.4 C 0 km/h
702 31-05-2010 20:22:01 12.5 C 9.46 g/m*3 12.5 C 0 km/h
703 31-05-2010 20:34:02 12.5 C 9.57 g/m*3 12.5 C 0 km/h
704 31-05-2010 20:46:02 12.5 C 9.57 g/m*3 12.5 C 0 km/h
705 31-05-2010 20:58:02 12.5 C 9.57 g/m*3 12.5 C 0 km/h
706 31-05-2010 21:10:03 12.5 C 9.57 g/m*3 12.5 C 0 km/h
707 31-05-2010 21:22:02 12.6 C 9.62 g/m*3 12.6 C 0 km/h
708 31-05-2010 21:34:02 12.5 C 9.46 g/m*3 12.5 C 0 km/h
709 31-05-2010 21:46:02 12.5 C 9.57 g/m*3 12.5 C 0 km/h
710 31-05-2010 21:58:02 12.4 C 9.51 g/m*3 12.4 C 0 km/h
711 31-05-2010 22:10:01 12.4 C 9.62 g/m*3 12.4 C 0 km/h
712 31-05-2010 22:23:01 12.5 C 9.68 g/m*3 12.5 C 0 km/h
713 31-05-2010 22:35:01 12.5 C 9.78 g/m*3 12.5 C 0 km/h
714 31-05-2010 22:47:01 12.6 C 9.85 g/m*3 12.6 C 0 km/h
715 31-05-2010 22:59:01 12.7 C 9.91 g/m*3 12.7 C 0 km/h
716 31-05-2010 23:11:01 12.7 C 9.8 g/m*3 12.7 C 0 km/h
717 31-05-2010 23:23:01 12.7 C 9.8 g/m*3 12.7 C 0 km/h
718 31-05-2010 23:35:01 12.7 C 9.8 g/m*3 12.7 C 0 km/h
719 31-05-2010 23:47:02 12.6 C 9.74 g/m*3 12.6 C 0 km/h
720 31-05-2010 23:59:02 12.4 C 9.62 g/m*3 12.4 C 0 km/h
721 01-06-2010 00:11:02 11.9 C 9.43 g/m*3 11.9 C 0 km/h
722 01-06-2010 00:23:02 11.8 C 9.47 g/m*3 11.8 C 0 km/h
723 01-06-2010 00:35:02 11.5 C 9.3 g/m*3 11.5 C 0 km/h
724 01-06-2010 00:47:02 11.7 C 9.41 g/m*3 11.7 C 0 km/h
725 01-06-2010 00:59:02 11.6 C 9.46 g/m*3 11.6 C 0 km/h
Sensor: Nr:Datum:Temp:Abs-Feuchte:Windchill:Wind:
Aussen-T/F 726 01-06-2010 01:11:02 11.5 C 9.5 g/m*3 11.5 C 0 km/h
727 01-06-2010 01:23:02 11.6 C 9.56 g/m*3 11.6 C 0 km/h
728 01-06-2010 01:35:02 11.7 C 9.62 g/m*3 11.7 C 0 km/h
729 01-06-2010 01:47:02 11.2 C 9.33 g/m*3 11.2 C 0 km/h
730 01-06-2010 01:59:02 11.2 C 9.33 g/m*3 11.2 C 0 km/h
731 01-06-2010 02:11:02 11 C 9.21 g/m*3 11 C 0 km/h
732 01-06-2010 02:23:02 10.9 C 9.25 g/m*3 10.9 C 0 km/h
733 01-06-2010 02:35:02 10.8 C 9.19 g/m*3 10.8 C 0 km/h
734 01-06-2010 02:47:02 10.8 C 9.19 g/m*3 10.8 C 0 km/h
735 01-06-2010 02:59:02 11.1 C 9.37 g/m*3 11.1 C 0 km/h
736 01-06-2010 03:11:02 11.3 C 9.49 g/m*3 11.3 C 0 km/h
737 01-06-2010 03:23:02 11.4 C 9.65 g/m*3 11.4 C 0 km/h
738 01-06-2010 03:35:02 11.4 C 9.65 g/m*3 11.4 C 0 km/h
739 01-06-2010 03:47:02 11.4 C 9.65 g/m*3 11.4 C 0 km/h
740 01-06-2010 03:59:03 11.4 C 9.65 g/m*3 11.4 C 0 km/h
741 01-06-2010 04:11:03 11.8 C 9.79 g/m*3 11.8 C 0 km/h
742 01-06-2010 04:23:03 11.2 C 9.43 g/m*3 11.2 C 0 km/h
743 01-06-2010 04:35:03 11 C 9.31 g/m*3 11 C 0 km/h
744 01-06-2010 04:47:03 10.5 C 9.02 g/m*3 10.5 C 0 km/h
745 01-06-2010 04:59:03 10.8 C 9.19 g/m*3 10.8 C 0 km/h
746 01-06-2010 05:11:03 11 C 9.31 g/m*3 11 C 0 km/h
747 01-06-2010 05:23:03 11.2 C 9.53 g/m*3 11.2 C 0 km/h
748 01-06-2010 05:35:03 11.2 C 9.43 g/m*3 11.2 C 0 km/h
749 01-06-2010 05:47:03 11.3 C 9.49 g/m*3 11.3 C 0 km/h
750 01-06-2010 05:59:03 11.2 C 9.43 g/m*3 11.2 C 0 km/h
Sensor: Nr:Datum:Temp:Abs-Feuchte:Windchill:Wind:
Aussen-T/F 751 01-06-2010 06:11:03 11.3 C 9.49 g/m*3 11.3 C 0 km/h
752 01-06-2010 06:23:03 11.3 C 9.38 g/m*3 11.3 C 0 km/h
753 01-06-2010 06:35:03 11.2 C 9.33 g/m*3 11.2 C 0 km/h
754 01-06-2010 06:47:03 11.1 C 9.17 g/m*3 11.1 C 0 km/h
755 01-06-2010 06:59:03 11.2 C 9.12 g/m*3 11.2 C 0 km/h
756 01-06-2010 07:11:02 11.4 C 9.24 g/m*3 11.4 C 0 km/h
757 01-06-2010 07:23:01 11.7 C 9.31 g/m*3 11.7 C 0 km/h
758 01-06-2010 07:35:02 12 C 9.38 g/m*3 12 C 0 km/h
759 01-06-2010 07:47:02 12.4 C 9.4 g/m*3 12.4 C 0 km/h
760 01-06-2010 07:59:02 12.7 C 9.35 g/m*3 12.7 C 0 km/h
761 01-06-2010 08:11:02 12.9 C 9.35 g/m*3 12.9 C 0 km/h
762 01-06-2010 08:23:01 13.6 C 9.53 g/m*3 13.6 C 0 km/h
763 01-06-2010 08:35:02 13.9 C 9.35 g/m*3 13.9 C 0 km/h
764 01-06-2010 08:47:01 14.2 C 9.16 g/m*3 14.2 C 0 km/h
765 01-06-2010 08:59:01 13.8 C 9.17 g/m*3 13.8 C 0 km/h
766 01-06-2010 09:11:02 14.3 C 9.09 g/m*3 14.3 C 0 km/h
767 01-06-2010 09:23:02 14.7 C 9.07 g/m*3 14.7 C 0 km/h
768 01-06-2010 09:35:02 15.2 C 9.22 g/m*3 15.2 C 0 km/h
769 01-06-2010 09:47:01 15 C 8.59 g/m*3 15 C 0 km/h
770 01-06-2010 09:59:01 15.8 C 8.62 g/m*3 15.8 C 0 km/h
771 01-06-2010 10:11:02 15.3 C 8.36 g/m*3 15.3 C 0 km/h
772 01-06-2010 10:23:02 14.5 C 8.58 g/m*3 14.5 C 0 km/h
773 01-06-2010 10:35:01 14.5 C 8.83 g/m*3 14.5 C 0 km/h
774 01-06-2010 10:47:02 15.7 C 8.83 g/m*3 15.7 C 0 km/h
775 01-06-2010 10:59:02 15.4 C 8.54 g/m*3 15.4 C 0 km/h
Sensor: Nr:Datum:Temp:Abs-Feuchte:Windchill:Wind:
Aussen-T/F 776 01-06-2010 11:11:01 16.1 C 8.64 g/m*3 16.1 C 0 km/h
777 01-06-2010 11:23:02 17.2 C 8.49 g/m*3 17.2 C 0 km/h
778 01-06-2010 11:35:01 16.7 C 7.96 g/m*3 16.7 C 0 km/h
779 01-06-2010 11:47:02 17.6 C 8.1 g/m*3 17.6 C 0 km/h
780 01-06-2010 11:59:02 17.8 C 7.59 g/m*3 17.8 C 0 km/h
781 01-06-2010 12:11:02 18.8 C 7.89 g/m*3 18.8 C 0 km/h
782 01-06-2010 12:23:02 18.9 C 7.45 g/m*3 18.9 C 0 km/h
783 01-06-2010 12:35:03 19.3 C 6.63 g/m*3 19.3 C 0 km/h
784 01-06-2010 12:47:02 20.6 C 7.34 g/m*3 20.6 C 0 km/h
785 01-06-2010 12:59:03 19.5 C 6.71 g/m*3 19.5 C 0 km/h
786 01-06-2010 13:11:01 19.7 C 6.79 g/m*3 19.7 C 0 km/h
787 01-06-2010 13:23:02 20.9 C 6.92 g/m*3 20.9 C 0 km/h
788 01-06-2010 13:35:02 21.6 C 6.83 g/m*3 21.6 C 0 km/h
789 01-06-2010 13:47:02 20.4 C 6.19 g/m*3 20.4 C 0 km/h
790 01-06-2010 13:59:02 20.3 C 6.68 g/m*3 20.3 C 0 km/h
791 01-06-2010 14:11:03 19.8 C 6.66 g/m*3 19.8 C 0 km/h
792 01-06-2010 14:23:02 20.5 C 7.12 g/m*3 20.5 C 0 km/h
793 01-06-2010 14:35:02 21 C 6.05 g/m*3 21 C 0 km/h
794 01-06-2010 14:47:01 22 C 6.02 g/m*3 22 C 0 km/h
795 01-06-2010 14:59:01 21.6 C 5.88 g/m*3 21.6 C 0 km/h
796 01-06-2010 15:11:02 20.8 C 5.61 g/m*3 20.8 C 0 km/h
797 01-06-2010 15:23:01 21.2 C 5.37 g/m*3 21.2 C 0 km/h
798 01-06-2010 15:35:01 22.2 C 5.1 g/m*3 22.2 C 0 km/h
799 01-06-2010 15:47:01 23.8 C 5.38 g/m*3 23.8 C 0 km/h
800 01-06-2010 15:59:01 22.7 C 5.25 g/m*3 22.7 C 0 km/h
Sensor: Nr:Datum:Temp:Abs-Feuchte:Windchill:Wind:
Aussen-T/F 801 01-06-2010 16:11:02 22.3 C 4.54 g/m*3 22.3 C 0 km/h
802 01-06-2010 16:23:01 22.7 C 5.05 g/m*3 22.7 C 0 km/h
803 01-06-2010 16:35:01 22.7 C 5.05 g/m*3 22.7 C 0 km/h
804 01-06-2010 16:47:01 22.7 C 5.05 g/m*3 22.7 C 0 km/h
805 01-06-2010 16:59:01 23.6 C 5.1 g/m*3 23.6 C 0 km/h
806 01-06-2010 17:11:02 23.3 C 5.23 g/m*3 23.3 C 0 km/h
807 01-06-2010 17:23:02 22.8 C 5.89 g/m*3 22.8 C 0 km/h
808 01-06-2010 17:35:01 22.7 C 5.25 g/m*3 22.7 C 0 km/h
809 01-06-2010 17:47:01 22.4 C 5.16 g/m*3 22.4 C 0 km/h
810 01-06-2010 17:59:01 21.3 C 4.85 g/m*3 21.3 C 0 km/h
811 01-06-2010 18:11:01 20.7 C 4.68 g/m*3 20.7 C 0 km/h
812 01-06-2010 18:23:02 20.4 C 4.95 g/m*3 20.4 C 0 km/h
813 01-06-2010 18:35:01 20.7 C 4.86 g/m*3 20.7 C 0 km/h
814 01-06-2010 18:47:03 20.6 C 5.37 g/m*3 20.6 C 0 km/h
815 01-06-2010 18:59:03 20.4 C 5.66 g/m*3 20.4 C 0 km/h
816 01-06-2010 19:11:02 20.1 C 5.74 g/m*3 20.1 C 0 km/h
817 01-06-2010 19:23:02 19.7 C 6.11 g/m*3 19.7 C 0 km/h
818 01-06-2010 19:35:02 19.5 C 6.38 g/m*3 19.5 C 0 km/h
819 01-06-2010 19:47:02 19.3 C 6.14 g/m*3 19.3 C 0 km/h
820 01-06-2010 19:59:02 19.1 C 6.07 g/m*3 19.1 C 0 km/h
821 01-06-2010 20:11:02 18.9 C 6.8 g/m*3 18.9 C 0 km/h
822 01-06-2010 20:23:02 18.7 C 7.04 g/m*3 18.7 C 0 km/h
823 01-06-2010 20:35:02 18.2 C 6.99 g/m*3 18.2 C 0 km/h
824 01-06-2010 20:47:02 17.8 C 7.29 g/m*3 17.8 C 0 km/h
825 01-06-2010 20:59:03 17.4 C 7.11 g/m*3 17.4 C 0 km/h
Sensor: Nr:Datum:Temp:Abs-Feuchte:Windchill:Wind:
Aussen-T/F 826 01-06-2010 21:11:01 16.8 C 7.15 g/m*3 16.8 C 0 km/h
827 01-06-2010 21:23:01 16.6 C 7.2 g/m*3 16.6 C 0 km/h
828 01-06-2010 21:35:02 16.1 C 7.13 g/m*3 16.1 C 0 km/h
829 01-06-2010 21:47:02 15.8 C 7 g/m*3 15.8 C 0 km/h
830 01-06-2010 21:59:02 15.5 C 7.01 g/m*3 15.5 C 0 km/h
831 01-06-2010 22:11:02 15.3 C 7.18 g/m*3 15.3 C 0 km/h
832 01-06-2010 22:23:02 15.1 C 7.22 g/m*3 15.1 C 0 km/h
833 01-06-2010 22:35:02 15 C 7.31 g/m*3 15 C 0 km/h
834 01-06-2010 22:47:02 14.9 C 7.52 g/m*3 14.9 C 0 km/h
835 01-06-2010 22:59:02 14.9 C 7.65 g/m*3 14.9 C 0 km/h
836 01-06-2010 23:11:02 14.8 C 7.73 g/m*3 14.8 C 0 km/h
837 01-06-2010 23:23:02 14.8 C 7.6 g/m*3 14.8 C 0 km/h
838 01-06-2010 23:35:02 14.8 C 7.73 g/m*3 14.8 C 0 km/h
839 01-06-2010 23:47:01 14.7 C 7.81 g/m*3 14.7 C 0 km/h
840 01-06-2010 23:59:01 14.6 C 7.88 g/m*3 14.6 C 0 km/h

Legende:
   Min
   Max


Maximal/Minimal-Werte vom 26.05.2010 - 01.06.2010

Sensor Min Max Avg
Temp
(Aussen-T/F)
8.4 °C
31-05-2010  04:10:04
25.5 °C
29-05-2010  13:44:01
15.27 °C
Abs-Feuchte
(Aussen-T/F)
3.93 g/m*3
28-05-2010  17:07:01
13.93 g/m*3
26-05-2010  18:41:01
7.92 g/m*3
Windchill
(Aussen-T/F)
8.4 C
31-05-2010  04:10:04
25.5 C
29-05-2010  13:44:01
15.25 C

Die Daten stammen von einer Davis Vantage Pro 2 Wetter-Station und werden unter Linux mit der Software wview2wettercgi und aufbereitet. Alle Angaben erfolgen ohne Gewähr für ihre Vollständigkeit oder Richtigkeit.
Kontakt: Rainer Krienke krienke@uni-koblenz.de . Meine Webseiten an der Uni Koblenz oder privat.
Version: $Revision: 0.78 $